Time,TemperatureF,DewpointF,PressureIn,WindDirection,WindDirectionDegrees,WindSpeedMPH,WindSpeedGustMPH,Humidity,HourlyPrecipIn,Conditions,Clouds,dailyrainin,SoftwareType,DateUTC
2013-01-27 00:02:00,41.0,-99.9,30.12,ESE,121,4.0,5.0,-999,-99.99,,,-99.99,,2013-01-27 08:02:00,
2013-01-27 00:12:00,41.0,-99.9,30.12,SSE,151,3.0,4.0,-999,-99.99,,,-99.99,,2013-01-27 08:12:00,
2013-01-27 00:22:00,42.0,-99.9,30.13,NE,34,4.0,8.0,-999,-99.99,,,-99.99,,2013-01-27 08:22:00,
2013-01-27 00:32:00,41.0,-99.9,30.13,NNE,13,6.0,12.0,-999,-99.99,,,-99.99,,2013-01-27 08:32:00,
2013-01-27 00:42:00,41.0,-99.9,30.13,East,98,2.0,3.0,-999,-99.99,,,-99.99,,2013-01-27 08:42:00,
2013-01-27 00:52:00,41.0,-99.9,30.13,ESE,107,7.0,8.0,-999,-99.99,,,-99.99,,2013-01-27 08:52:00,
2013-01-27 01:03:00,41.0,-99.9,30.13,ESE,114,5.0,6.0,-999,-99.99,,,-99.99,,2013-01-27 09:03:00,
2013-01-27 01:11:00,41.0,-99.9,30.13,East,101,4.0,5.0,-999,-99.99,,,-99.99,,2013-01-27 09:11:00,
2013-01-27 01:22:00,41.0,-99.9,30.13,East,98,5.0,6.0,-999,-99.99,,,-99.99,,2013-01-27 09:22:00,
2013-01-27 01:32:00,41.0,-99.9,30.13,ENE,74,2.0,6.0,-999,-99.99,,,-99.99,,2013-01-27 09:32:00,
2013-01-27 01:42:00,41.0,-99.9,30.13,ESE,117,5.0,6.0,-999,-99.99,,,-99.99,,2013-01-27 09:42:00,
2013-01-27 01:52:00,41.0,-99.9,30.13,East,95,5.0,7.0,-999,-99.99,,,-99.99,,2013-01-27 09:52:00,
2013-01-27 02:01:00,41.0,-99.9,30.13,East,101,5.0,8.0,-999,-99.99,,,-99.99,,2013-01-27 10:01:00,
2013-01-27 02:11:00,41.0,-99.9,30.13,ESE,113,5.0,6.0,-999,-99.99,,,-99.99,,2013-01-27 10:11:00,
2013-01-27 02:21:00,40.0,-99.9,30.13,ESE,106,6.0,7.0,-999,-99.99,,,-99.99,,2013-01-27 10:21:00,
2013-01-27 02:32:00,40.0,-99.9,30.13,East,95,4.0,6.0,-999,-99.99,,,-99.99,,2013-01-27 10:32:00,
2013-01-27 02:42:00,40.0,-99.9,30.15,West,280,2.0,3.0,-999,-99.99,,,-99.99,,2013-01-27 10:42:00,
2013-01-27 02:52:00,40.0,-99.9,30.15,SSW,202,3.0,4.0,-999,-99.99,,,-99.99,,2013-01-27 10:52:00,
2013-01-27 03:01:00,40.0,-99.9,30.14,SE,138,5.0,5.0,-999,-99.99,,,-99.99,,2013-01-27 11:01:00,
2013-01-27 03:11:00,41.0,-99.9,30.14,SE,131,4.0,5.0,-999,-99.99,,,-99.99,,2013-01-27 11:11:00,
2013-01-27 03:22:00,40.0,-99.9,30.15,ENE,71,2.0,6.0,-999,-99.99,,,-99.99,,2013-01-27 11:22:00,
2013-01-27 03:32:00,40.0,-99.9,30.14,East,100,5.0,6.0,-999,-99.99,,,-99.99,,2013-01-27 11:32:00,
2013-01-27 03:42:00,41.0,-99.9,30.14,East,99,5.0,8.0,-999,-99.99,,,-99.99,,2013-01-27 11:42:00,
2013-01-27 03:52:00,41.0,-99.9,30.14,ESE,106,5.0,7.0,-999,-99.99,,,-99.99,,2013-01-27 11:52:00,
2013-01-27 04:03:00,40.0,-99.9,30.14,ESE,110,4.0,6.0,-999,-99.99,,,-99.99,,2013-01-27 12:03:00,
2013-01-27 04:12:00,41.0,-99.9,30.14,East,101,2.0,3.0,-999,-99.99,,,-99.99,,2013-01-27 12:12:00,
2013-01-27 04:22:00,41.0,-99.9,30.14,East,95,4.0,5.0,-999,-99.99,,,-99.99,,2013-01-27 12:22:00,
2013-01-27 04:33:00,41.0,-99.9,30.15,East,91,4.0,6.0,-999,-99.99,,,-99.99,,2013-01-27 12:33:00,
2013-01-27 04:42:00,41.0,-99.9,30.15,East,100,4.0,7.0,-999,-99.99,,,-99.99,,2013-01-27 12:42:00,
2013-01-27 04:52:00,41.0,-99.9,30.15,ESE,102,3.0,4.0,-999,-99.99,,,-99.99,,2013-01-27 12:52:00,
2013-01-27 05:02:00,41.0,-99.9,30.14,East,98,5.0,6.0,-999,-99.99,,,-99.99,,2013-01-27 13:02:00,
2013-01-27 05:12:00,41.0,-99.9,30.14,ESE,110,6.0,7.0,-999,-99.99,,,-99.99,,2013-01-27 13:12:00,
2013-01-27 05:22:00,40.0,-99.9,30.14,East,100,6.0,7.0,-999,-99.99,,,-99.99,,2013-01-27 13:22:00,
2013-01-27 05:32:00,40.0,-99.9,30.14,East,84,3.0,6.0,-999,-99.99,,,-99.99,,2013-01-27 13:32:00,
2013-01-27 05:42:00,40.0,-99.9,30.14,ESE,121,4.0,7.0,-999,-99.99,,,-99.99,,2013-01-27 13:42:00,
2013-01-27 05:52:00,40.0,-99.9,30.14,ESE,122,5.0,6.0,-999,-99.99,,,-99.99,,2013-01-27 13:52:00,
2013-01-27 06:02:00,40.0,-99.9,30.14,SE,132,5.0,6.0,-999,-99.99,,,-99.99,,2013-01-27 14:02:00,
2013-01-27 06:12:00,40.0,-99.9,30.14,ESE,112,6.0,8.0,-999,-99.99,,,-99.99,,2013-01-27 14:12:00,
2013-01-27 06:22:00,40.0,-99.9,30.14,East,80,2.0,5.0,-999,-99.99,,,-99.99,,2013-01-27 14:22:00,
2013-01-27 06:33:00,40.0,-99.9,30.14,ESE,104,6.0,8.0,-999,-99.99,,,-99.99,,2013-01-27 14:33:00,
2013-01-27 06:43:00,40.0,-99.9,30.14,ESE,109,6.0,6.0,-999,-99.99,,,-99.99,,2013-01-27 14:43:00,
2013-01-27 06:53:00,40.0,-99.9,30.14,ESE,116,4.0,5.0,-999,-99.99,,,-99.99,,2013-01-27 14:53:00,
2013-01-27 07:02:00,40.0,-99.9,30.14,East,99,4.0,5.0,-999,-99.99,,,-99.99,,2013-01-27 15:02:00,
2013-01-27 07:12:00,40.0,-99.9,30.14,East,98,4.0,6.0,-999,-99.99,,,-99.99,,2013-01-27 15:12:00,
2013-01-27 07:22:00,39.0,-99.9,30.15,East,97,5.0,6.0,-999,-99.99,,,-99.99,,2013-01-27 15:22:00,
2013-01-27 07:33:00,39.0,-99.9,30.15,East,91,5.0,6.0,-999,-99.99,,,-99.99,,2013-01-27 15:33:00,
2013-01-27 07:42:00,39.0,-99.9,30.15,East,95,5.0,8.0,-999,-99.99,,,-99.99,,2013-01-27 15:42:00,
2013-01-27 07:53:00,39.0,-99.9,30.15,ESE,103,7.0,9.0,-999,-99.99,,,-99.99,,2013-01-27 15:53:00,
2013-01-27 08:03:00,39.0,-99.9,30.15,ESE,111,7.0,8.0,-999,-99.99,,,-99.99,,2013-01-27 16:03:00,
2013-01-27 08:12:00,38.0,-99.9,30.15,ESE,105,7.0,8.0,-999,-99.99,,,-99.99,,2013-01-27 16:12:00,
2013-01-27 08:22:00,38.0,-99.9,30.15,East,98,6.0,8.0,-999,-99.99,,,-99.99,,2013-01-27 16:22:00,
2013-01-27 08:33:00,39.0,-99.9,30.15,ESE,114,7.0,9.0,-999,-99.99,,,-99.99,,2013-01-27 16:33:00,
2013-01-27 08:42:00,39.0,-99.9,30.16,East,96,3.0,8.0,-999,-99.99,,,-99.99,,2013-01-27 16:42:00,
2013-01-27 08:53:00,39.0,-99.9,30.16,East,88,4.0,7.0,-999,-99.99,,,-99.99,,2013-01-27 16:53:00,
2013-01-27 09:02:00,39.0,-99.9,30.16,East,88,3.0,5.0,-999,-99.99,,,-99.99,,2013-01-27 17:02:00,
2013-01-27 09:12:00,39.0,-99.9,30.16,East,97,5.0,7.0,-999,-99.99,,,-99.99,,2013-01-27 17:12:00,
2013-01-27 09:22:00,40.0,-99.9,30.17,East,98,5.0,7.0,-999,-99.99,,,-99.99,,2013-01-27 17:22:00,
2013-01-27 09:33:00,40.0,-99.9,30.17,East,96,5.0,6.0,-999,-99.99,,,-99.99,,2013-01-27 17:33:00,
2013-01-27 09:42:00,40.0,-99.9,30.17,ESE,103,6.0,7.0,-999,-99.99,,,-99.99,,2013-01-27 17:42:00,
2013-01-27 09:53:00,40.0,-99.9,30.17,ESE,106,5.0,6.0,-999,-99.99,,,-99.99,,2013-01-27 17:53:00,
2013-01-27 10:03:00,40.0,-99.9,30.17,ESE,112,6.0,6.0,-999,-99.99,,,-99.99,,2013-01-27 18:03:00,
2013-01-27 10:12:00,40.0,-99.9,30.18,East,80,3.0,6.0,-999,-99.99,,,-99.99,,2013-01-27 18:12:00,
2013-01-27 10:23:00,41.0,-99.9,30.18,ESE,115,6.0,7.0,-999,-99.99,,,-99.99,,2013-01-27 18:23:00,
2013-01-27 10:32:00,41.0,-99.9,30.18,ESE,114,5.0,6.0,-999,-99.99,,,-99.99,,2013-01-27 18:32:00,
2013-01-27 10:42:00,41.0,-99.9,30.18,East,88,3.0,6.0,-999,-99.99,,,-99.99,,2013-01-27 18:42:00,
2013-01-27 10:53:00,41.0,-99.9,30.18,East,99,6.0,8.0,-999,-99.99,,,-99.99,,2013-01-27 18:53:00,
2013-01-27 11:02:00,41.0,-99.9,30.18,ESE,109,4.0,5.0,-999,-99.99,,,-99.99,,2013-01-27 19:02:00,
2013-01-27 11:12:00,42.0,-99.9,30.18,East,97,4.0,5.0,-999,-99.99,,,-99.99,,2013-01-27 19:12:00,
2013-01-27 11:22:00,42.0,-99.9,30.18,SE,144,3.0,5.0,-999,-99.99,,,-99.99,,2013-01-27 19:22:00,
2013-01-27 11:33:00,42.0,-99.9,30.18,SE,130,4.0,5.0,-999,-99.99,,,-99.99,,2013-01-27 19:33:00,
2013-01-27 11:42:00,43.0,-99.9,30.18,ESE,120,5.0,6.0,-999,-99.99,,,-99.99,,2013-01-27 19:42:00,
2013-01-27 11:52:00,43.0,-99.9,30.18,SE,144,7.0,11.0,-999,-99.99,,,-99.99,,2013-01-27 19:52:00,
2013-01-27 12:03:00,45.0,-99.9,30.18,SW,234,7.0,13.0,-999,-99.99,,,-99.99,,2013-01-27 20:03:00,
2013-01-27 12:12:00,44.0,-99.9,30.17,SW,224,10.0,14.0,-999,-99.99,,,-99.99,,2013-01-27 20:12:00,
2013-01-27 12:22:00,44.0,-99.9,30.17,SW,224,10.0,16.0,-999,-99.99,,,-99.99,,2013-01-27 20:22:00,
2013-01-27 12:33:00,44.0,-99.9,30.17,SW,223,9.0,12.0,-999,-99.99,,,-99.99,,2013-01-27 20:33:00,
2013-01-27 12:42:00,44.0,-99.9,30.16,SSW,200,8.0,12.0,-999,-99.99,,,-99.99,,2013-01-27 20:42:00,
2013-01-27 12:52:00,44.0,-99.9,30.16,SSW,207,8.0,11.0,-999,-99.99,,,-99.99,,2013-01-27 20:52:00,
2013-01-27 13:02:00,44.0,-99.9,30.16,SSW,195,9.0,14.0,-999,-99.99,,,-99.99,,2013-01-27 21:02:00,
2013-01-27 13:12:00,44.0,-99.9,30.15,SSW,201,7.0,10.0,-999,-99.99,,,-99.99,,2013-01-27 21:12:00,
2013-01-27 13:23:00,44.0,-99.9,30.15,SSW,206,8.0,9.0,-999,-99.99,,,-99.99,,2013-01-27 21:23:00,
2013-01-27 13:33:00,44.0,-99.9,30.14,SW,215,9.0,13.0,-999,-99.99,,,-99.99,,2013-01-27 21:33:00,
2013-01-27 13:43:00,44.0,-99.9,30.14,SSW,210,6.0,11.0,-999,-99.99,,,-99.99,,2013-01-27 21:43:00,
2013-01-27 13:52:00,44.0,-99.9,30.14,SSW,211,8.0,14.0,-999,-99.99,,,-99.99,,2013-01-27 21:52:00,
2013-01-27 14:03:00,44.0,-99.9,30.13,SSW,203,9.0,13.0,-999,-99.99,,,-99.99,,2013-01-27 22:03:00,
2013-01-27 14:12:00,44.0,-99.9,30.13,SSW,211,7.0,13.0,-999,-99.99,,,-99.99,,2013-01-27 22:12:00,
2013-01-27 14:22:00,44.0,-99.9,30.12,SSW,209,6.0,10.0,-999,-99.99,,,-99.99,,2013-01-27 22:22:00,
2013-01-27 14:33:00,44.0,-99.9,30.13,WSW,249,6.0,11.0,-999,-99.99,,,-99.99,,2013-01-27 22:33:00,
2013-01-27 14:42:00,42.0,-99.9,30.12,West,271,9.0,15.0,-999,-99.99,,,-99.99,,2013-01-27 22:42:00,
2013-01-27 14:52:00,43.0,-99.9,30.12,WNW,291,6.0,10.0,-999,-99.99,,,-99.99,,2013-01-27 22:52:00,
2013-01-27 15:02:00,43.0,-99.9,30.12,West,279,9.0,17.0,-999,-99.99,,,-99.99,,2013-01-27 23:02:00,
2013-01-27 15:12:00,43.0,-99.9,30.12,West,274,11.0,15.0,-999,-99.99,,,-99.99,,2013-01-27 23:12:00,
2013-01-27 15:22:00,43.0,-99.9,30.12,SW,216,4.0,8.0,-999,-99.99,,,-99.99,,2013-01-27 23:22:00,
2013-01-27 15:32:00,42.0,-99.9,30.12,SSW,205,3.0,6.0,-999,-99.99,,,-99.99,,2013-01-27 23:32:00,
2013-01-27 15:42:00,44.0,-99.9,30.12,West,267,7.0,11.0,-999,-99.99,,,-99.99,,2013-01-27 23:42:00,
2013-01-27 15:53:00,44.0,-99.9,30.12,West,277,13.0,17.0,-999,-99.99,,,-99.99,,2013-01-27 23:53:00,
2013-01-27 16:02:00,44.0,-99.9,30.12,West,273,10.0,14.0,-999,-99.99,,,-99.99,,2013-01-28 00:02:00,
2013-01-27 16:12:00,44.0,-99.9,30.12,West,269,6.0,11.0,-999,-99.99,,,-99.99,,2013-01-28 00:12:00,
2013-01-27 16:22:00,44.0,-99.9,30.11,West,269,7.0,9.0,-999,-99.99,,,-99.99,,2013-01-28 00:22:00,
2013-01-27 16:33:00,44.0,-99.9,30.11,West,270,10.0,12.0,-999,-99.99,,,-99.99,,2013-01-28 00:33:00,
2013-01-27 16:42:00,44.0,-99.9,30.12,West,271,11.0,14.0,-999,-99.99,,,-99.99,,2013-01-28 00:42:00,
2013-01-27 16:52:00,44.0,-99.9,30.11,West,272,9.0,11.0,-999,-99.99,,,-99.99,,2013-01-28 00:52:00,
2013-01-27 17:02:00,44.0,-99.9,30.11,West,278,9.0,13.0,-999,-99.99,,,-99.99,,2013-01-28 01:02:00,
2013-01-27 17:12:00,44.0,-99.9,30.11,West,270,10.0,16.0,-999,-99.99,,,-99.99,,2013-01-28 01:12:00,
2013-01-27 17:22:00,44.0,-99.9,30.11,West,268,13.0,15.0,-999,-99.99,,,-99.99,,2013-01-28 01:22:00,
2013-01-27 17:33:00,44.0,-99.9,30.11,West,274,13.0,19.0,-999,-99.99,,,-99.99,,2013-01-28 01:33:00,
2013-01-27 17:42:00,44.0,-99.9,30.11,West,268,10.0,16.0,-999,-99.99,,,-99.99,,2013-01-28 01:42:00,
2013-01-27 17:52:00,44.0,-99.9,30.10,West,269,11.0,14.0,-999,-99.99,,,-99.99,,2013-01-28 01:52:00,
2013-01-27 18:02:00,44.0,-99.9,30.10,West,266,7.0,13.0,-999,-99.99,,,-99.99,,2013-01-28 02:02:00,
2013-01-27 18:12:00,44.0,-99.9,30.10,West,264,7.0,12.0,-999,-99.99,,,-99.99,,2013-01-28 02:12:00,
2013-01-27 18:22:00,44.0,-99.9,30.09,West,260,6.0,12.0,-999,-99.99,,,-99.99,,2013-01-28 02:22:00,
2013-01-27 18:32:00,44.0,-99.9,30.09,WSW,251,5.0,9.0,-999,-99.99,,,-99.99,,2013-01-28 02:32:00,
2013-01-27 18:42:00,44.0,-99.9,30.09,SW,227,6.0,8.0,-999,-99.99,,,-99.99,,2013-01-28 02:42:00,
2013-01-27 18:53:00,44.0,-99.9,30.09,SSW,213,5.0,9.0,-999,-99.99,,,-99.99,,2013-01-28 02:53:00,
2013-01-27 19:02:00,44.0,-99.9,30.09,WSW,253,5.0,8.0,-999,-99.99,,,-99.99,,2013-01-28 03:02:00,
2013-01-27 19:12:00,44.0,-99.9,30.08,WSW,237,5.0,9.0,-999,-99.99,,,-99.99,,2013-01-28 03:12:00,
2013-01-27 19:22:00,45.0,-99.9,30.08,WSW,246,5.0,9.0,-999,-99.99,,,-99.99,,2013-01-28 03:22:00,
2013-01-27 19:32:00,45.0,-99.9,30.08,West,259,8.0,12.0,-999,-99.99,,,-99.99,,2013-01-28 03:32:00,
2013-01-27 19:42:00,45.0,-99.9,30.08,West,265,8.0,14.0,-999,-99.99,,,-99.99,,2013-01-28 03:42:00,
2013-01-27 19:53:00,45.0,-99.9,30.09,West,259,7.0,12.0,-999,-99.99,,,-99.99,,2013-01-28 03:53:00,
2013-01-27 20:02:00,45.0,-99.9,30.09,West,277,9.0,15.0,-999,-99.99,,,-99.99,,2013-01-28 04:02:00,
2013-01-27 20:12:00,44.0,-99.9,30.09,West,280,10.0,13.0,-999,-99.99,,,-99.99,,2013-01-28 04:12:00,
2013-01-27 20:22:00,45.0,-99.9,30.09,West,271,7.0,10.0,-999,-99.99,,,-99.99,,2013-01-28 04:22:00,
2013-01-27 20:32:00,45.0,-99.9,30.09,NNW,331,3.0,7.0,-999,-99.99,,,-99.99,,2013-01-28 04:32:00,
2013-01-27 20:42:00,45.0,-99.9,30.09,North,350,4.0,12.0,-999,-99.99,,,-99.99,,2013-01-28 04:42:00,
2013-01-27 20:52:00,45.0,-99.9,30.09,NNW,334,5.0,8.0,-999,-99.99,,,-99.99,,2013-01-28 04:52:00,
2013-01-27 21:04:00,45.0,-99.9,30.09,NNW,330,5.0,9.0,-999,-99.99,,,-99.99,,2013-01-28 05:04:00,
2013-01-27 21:12:00,45.0,-99.9,30.09,NNW,330,3.0,7.0,-999,-99.99,,,-99.99,,2013-01-28 05:12:00,
2013-01-27 21:22:00,45.0,-99.9,30.10,NW,325,11.0,23.0,-999,-99.99,,,-99.99,,2013-01-28 05:22:00,
2013-01-27 21:32:00,46.0,-99.9,30.10,NW,320,10.0,16.0,-999,-99.99,,,-99.99,,2013-01-28 05:32:00,
2013-01-27 21:42:00,46.0,-99.9,30.10,NW,310,10.0,16.0,-999,-99.99,,,-99.99,,2013-01-28 05:42:00,
2013-01-27 21:52:00,46.0,-99.9,30.10,NW,314,12.0,21.0,-999,-99.99,,,-99.99,,2013-01-28 05:52:00,
2013-01-27 22:02:00,45.0,-99.9,30.12,NNW,341,15.0,27.0,-999,-99.99,,,-99.99,,2013-01-28 06:02:00,
2013-01-27 22:12:00,46.0,-99.9,30.12,NW,326,11.0,16.0,-999,-99.99,,,-99.99,,2013-01-28 06:12:00,
2013-01-27 22:22:00,46.0,-99.9,30.11,NW,318,12.0,19.0,-999,-99.99,,,-99.99,,2013-01-28 06:22:00,
2013-01-27 22:32:00,46.0,-99.9,30.12,NNW,330,13.0,20.0,-999,-99.99,,,-99.99,,2013-01-28 06:32:00,
2013-01-27 22:42:00,46.0,-99.9,30.12,NNW,330,9.0,15.0,-999,-99.99,,,-99.99,,2013-01-28 06:42:00,
2013-01-27 22:52:00,47.0,-99.9,30.11,NW,324,7.0,15.0,-999,-99.99,,,-99.99,,2013-01-28 06:52:00,
2013-01-27 23:03:00,47.0,-99.9,30.12,NNW,337,10.0,25.0,-999,-99.99,,,-99.99,,2013-01-28 07:03:00,
2013-01-27 23:11:00,47.0,-99.9,30.12,NW,324,12.0,19.0,-999,-99.99,,,-99.99,,2013-01-28 07:11:00,
2013-01-27 23:22:00,46.0,-99.9,30.13,NNW,333,14.0,24.0,-999,-99.99,,,-99.99,,2013-01-28 07:22:00,
2013-01-27 23:32:00,46.0,-99.9,30.13,NNW,332,9.0,16.0,-999,-99.99,,,-99.99,,2013-01-28 07:32:00,
2013-01-27 23:42:00,46.0,-99.9,30.14,NW,326,13.0,18.0,-999,-99.99,,,-99.99,,2013-01-28 07:42:00,
2013-01-27 23:52:00,46.0,-99.9,30.14,NW,326,13.0,18.0,-999,-99.99,,,-99.99,,2013-01-28 07:52:00,